createdAt,value
2022-11-21T00:00:57.447Z,978.22
2022-11-21T00:01:57.439Z,978.24
2022-11-21T00:02:57.407Z,978.29
2022-11-21T00:03:57.400Z,978.23
2022-11-21T00:04:57.394Z,978.26
2022-11-21T00:05:57.397Z,978.19
2022-11-21T00:06:57.383Z,978.22
2022-11-21T00:07:57.373Z,978.26
2022-11-21T00:08:57.359Z,978.20
2022-11-21T00:09:57.348Z,978.25
2022-11-21T00:10:57.355Z,978.28
2022-11-21T00:11:57.340Z,978.18
2022-11-21T00:12:57.342Z,978.21
2022-11-21T00:13:57.329Z,978.23
2022-11-21T00:14:57.343Z,978.29
2022-11-21T00:15:57.307Z,978.25
2022-11-21T00:16:57.735Z,978.25
2022-11-21T00:17:58.328Z,978.20
2022-11-21T00:18:57.289Z,978.22
2022-11-21T00:19:57.282Z,978.28
2022-11-21T00:20:57.275Z,978.18
2022-11-21T00:21:57.266Z,978.16
2022-11-21T00:22:57.245Z,978.13
2022-11-21T00:23:58.188Z,978.15
2022-11-21T00:24:57.232Z,978.17
2022-11-21T00:25:57.238Z,978.16
2022-11-21T00:26:57.221Z,978.14
2022-11-21T00:28:48.245Z,978.20
2022-11-21T00:29:48.218Z,978.20
2022-11-21T00:30:48.235Z,978.17
2022-11-21T00:31:48.211Z,978.17
2022-11-21T00:32:48.197Z,978.29
2022-11-21T00:33:48.196Z,978.15
2022-11-21T00:34:50.159Z,978.16
2022-11-21T00:35:50.299Z,978.12
2022-11-21T00:36:49.292Z,978.17
2022-11-21T00:37:49.270Z,978.17
2022-11-21T00:38:49.254Z,978.15
2022-11-21T00:39:49.230Z,978.11
2022-11-21T00:40:49.228Z,978.14
2022-11-21T00:41:49.216Z,978.15
2022-11-21T00:42:49.201Z,978.15
2022-11-21T00:43:50.215Z,978.13
2022-11-21T00:44:49.276Z,978.17
2022-11-21T00:45:49.209Z,978.10
2022-11-21T00:46:49.177Z,978.14
2022-11-21T00:47:50.169Z,978.11
2022-11-21T00:48:50.070Z,978.13
2022-11-21T00:49:49.144Z,978.19
2022-11-21T00:50:50.142Z,978.18
2022-11-21T00:51:49.138Z,978.20
2022-11-21T00:52:49.713Z,978.19
2022-11-21T00:53:49.130Z,978.17
2022-11-21T00:54:49.107Z,978.10
2022-11-21T00:55:49.094Z,978.16
2022-11-21T00:56:49.097Z,978.16
2022-11-21T00:57:49.077Z,978.15
2022-11-21T00:58:49.085Z,978.09
2022-11-21T00:59:49.067Z,978.07
2022-11-21T01:00:49.117Z,978.11
2022-11-21T01:01:49.057Z,978.13
2022-11-21T01:02:49.054Z,978.08
2022-11-21T01:03:49.035Z,978.11
2022-11-21T01:04:49.023Z,978.14
2022-11-21T01:05:49.018Z,978.13
2022-11-21T01:06:49.016Z,978.16
2022-11-21T01:07:49.000Z,978.16
2022-11-21T01:08:49.008Z,978.15
2022-11-21T01:09:48.998Z,978.16
2022-11-21T01:10:48.994Z,978.15
2022-11-21T01:11:48.986Z,978.14
2022-11-21T01:12:48.980Z,978.19
2022-11-21T01:13:49.011Z,978.17
2022-11-21T01:14:48.972Z,978.15
2022-11-21T01:15:48.940Z,978.09
2022-11-21T01:16:48.929Z,978.09
2022-11-21T01:17:48.962Z,978.15
2022-11-21T01:18:48.951Z,978.12
2022-11-21T01:19:48.898Z,978.23
2022-11-21T01:20:48.902Z,978.21
2022-11-21T01:21:48.903Z,978.14
2022-11-21T01:22:48.883Z,978.14
2022-11-21T01:23:48.875Z,978.13
2022-11-21T01:24:48.876Z,978.11
2022-11-21T01:25:48.885Z,978.15
2022-11-21T01:26:48.857Z,978.15
2022-11-21T01:27:48.841Z,978.16
2022-11-21T01:28:48.853Z,978.15
2022-11-21T01:29:48.839Z,978.20
2022-11-21T01:30:48.807Z,978.21
2022-11-21T01:31:49.817Z,978.15
2022-11-21T01:32:48.811Z,978.12
2022-11-21T01:33:48.804Z,978.20
2022-11-21T01:34:48.800Z,978.23
2022-11-21T01:35:48.776Z,978.17
2022-11-21T01:36:48.767Z,978.18
2022-11-21T01:37:48.764Z,978.17
2022-11-21T01:38:48.767Z,978.19
2022-11-21T01:39:48.760Z,978.17
2022-11-21T01:40:48.741Z,978.22
2022-11-21T01:41:48.727Z,978.20
2022-11-21T01:42:48.732Z,978.17
2022-11-21T01:43:48.751Z,978.19
2022-11-21T01:44:48.697Z,978.15
2022-11-21T01:45:49.705Z,978.19
2022-11-21T01:46:48.697Z,978.17
2022-11-21T01:47:49.678Z,978.18
2022-11-21T01:48:48.712Z,978.18
2022-11-21T01:49:48.670Z,978.24
2022-11-21T01:50:48.672Z,978.20
2022-11-21T01:51:48.665Z,978.19
2022-11-21T01:52:48.649Z,978.17
2022-11-21T01:53:48.667Z,978.16
2022-11-21T01:54:48.637Z,978.19
2022-11-21T01:55:48.617Z,978.26
2022-11-21T01:56:48.637Z,978.20
2022-11-21T01:57:48.604Z,978.28
2022-11-21T01:58:48.611Z,978.29
2022-11-21T01:59:48.598Z,978.30
2022-11-21T02:00:48.653Z,978.26
2022-11-21T02:01:48.577Z,978.31
2022-11-21T02:02:48.569Z,978.36
2022-11-21T02:03:49.202Z,978.34
2022-11-21T02:05:55.131Z,978.43
2022-11-21T02:06:55.132Z,978.39
2022-11-21T02:07:55.127Z,978.46
2022-11-21T02:08:55.107Z,978.51
2022-11-21T02:09:55.097Z,978.45
2022-11-21T02:10:55.100Z,978.52
2022-11-21T02:11:56.174Z,978.51
2022-11-21T02:12:56.220Z,978.56
2022-11-21T02:13:56.164Z,978.53
2022-11-21T02:14:56.158Z,978.52
2022-11-21T02:15:56.152Z,978.57
2022-11-21T02:16:56.140Z,978.60
2022-11-21T02:17:56.780Z,978.64
2022-11-21T02:18:56.129Z,978.60
2022-11-21T02:19:56.111Z,978.58
2022-11-21T02:20:56.110Z,978.66
2022-11-21T02:21:56.096Z,978.67
2022-11-21T02:22:56.211Z,978.70
2022-11-21T02:24:00.155Z,978.67
2022-11-21T02:24:57.086Z,978.71
2022-11-21T02:25:56.060Z,978.65
2022-11-21T02:26:56.050Z,978.72
2022-11-21T02:27:56.051Z,978.64
2022-11-21T02:28:56.058Z,978.73
2022-11-21T02:29:56.028Z,978.79
2022-11-21T02:30:56.038Z,978.77
2022-11-21T02:31:56.018Z,978.87
2022-11-21T02:32:56.014Z,978.82
2022-11-21T02:33:55.994Z,978.86
2022-11-21T02:34:56.012Z,978.84
2022-11-21T02:35:56.793Z,978.89
2022-11-21T02:36:55.972Z,978.90
2022-11-21T02:37:55.972Z,978.88
2022-11-21T02:38:55.964Z,978.92
2022-11-21T02:39:55.937Z,978.94
2022-11-21T02:40:57.782Z,978.99
2022-11-21T02:41:55.934Z,978.94
2022-11-21T02:42:55.940Z,978.98
2022-11-21T02:43:55.925Z,978.97
2022-11-21T02:44:55.930Z,978.99
2022-11-21T02:45:55.909Z,979.00
2022-11-21T02:46:55.906Z,979.05
2022-11-21T02:48:00.723Z,979.08
2022-11-21T02:48:58.381Z,979.12
2022-11-21T02:49:55.904Z,979.14
2022-11-21T02:50:55.861Z,979.13
2022-11-21T02:51:55.854Z,979.14
2022-11-21T02:52:55.848Z,979.15
2022-11-21T02:53:55.856Z,979.11
2022-11-21T02:54:55.829Z,979.18
2022-11-21T02:55:55.822Z,979.13
2022-11-21T02:56:55.820Z,979.14
2022-11-21T02:57:59.026Z,979.19
2022-11-21T02:58:56.819Z,979.19
2022-11-21T02:59:55.801Z,979.15
2022-11-21T03:00:55.885Z,979.29
2022-11-21T03:01:55.783Z,979.18
2022-11-21T03:02:55.798Z,979.24
2022-11-21T03:03:55.771Z,979.27
2022-11-21T03:04:55.759Z,979.24
2022-11-21T03:05:55.744Z,979.21
2022-11-21T03:06:55.749Z,979.32
2022-11-21T03:07:55.737Z,979.29
2022-11-21T03:08:55.721Z,979.30
2022-11-21T03:09:55.784Z,979.34
2022-11-21T03:10:55.748Z,979.31
2022-11-21T03:11:55.699Z,979.41
2022-11-21T03:12:55.713Z,979.39
2022-11-21T03:13:55.687Z,979.43
2022-11-21T03:14:55.662Z,979.42
2022-11-21T03:15:56.663Z,979.43
2022-11-21T03:16:55.667Z,979.45
2022-11-21T03:17:55.649Z,979.42
2022-11-21T03:18:55.645Z,979.47
2022-11-21T03:19:55.640Z,979.48
2022-11-21T03:20:57.318Z,979.53
2022-11-21T03:21:55.620Z,979.47
2022-11-21T03:22:55.633Z,979.50
2022-11-21T03:23:55.607Z,979.50
2022-11-21T03:24:55.600Z,979.53
2022-11-21T03:25:55.611Z,979.57
2022-11-21T03:26:55.582Z,979.59
2022-11-21T03:27:56.288Z,979.63
2022-11-21T03:28:55.596Z,979.62
2022-11-21T03:29:55.553Z,979.68
2022-11-21T03:30:55.549Z,979.73
2022-11-21T03:31:55.550Z,979.72
2022-11-21T03:32:55.533Z,979.75
2022-11-21T03:33:55.520Z,979.67
2022-11-21T03:34:55.516Z,979.71
2022-11-21T03:35:55.525Z,979.68
2022-11-21T03:36:55.496Z,979.71
2022-11-21T03:37:56.394Z,979.74
2022-11-21T03:38:55.506Z,979.77
2022-11-21T03:39:55.478Z,979.72
2022-11-21T03:40:55.462Z,979.76
2022-11-21T03:41:55.455Z,979.79
2022-11-21T03:42:55.454Z,979.80
2022-11-21T03:43:55.438Z,979.79
2022-11-21T03:44:55.430Z,979.81
2022-11-21T03:45:56.292Z,979.79
2022-11-21T03:46:55.413Z,979.79
2022-11-21T03:47:55.414Z,979.86
2022-11-21T03:48:55.398Z,979.87
2022-11-21T03:49:55.381Z,979.87
2022-11-21T03:50:55.398Z,979.91
2022-11-21T03:51:55.375Z,979.86
2022-11-21T03:52:55.365Z,979.88
2022-11-21T03:53:55.355Z,979.94
2022-11-21T03:54:55.344Z,979.89
2022-11-21T03:55:55.362Z,979.91
2022-11-21T03:56:55.332Z,980.00
2022-11-21T03:57:55.324Z,980.00
2022-11-21T03:58:55.342Z,980.00
2022-11-21T03:59:55.339Z,979.99
2022-11-21T04:00:55.301Z,979.98
2022-11-21T04:01:55.316Z,979.94
2022-11-21T04:02:55.799Z,980.02
2022-11-21T04:03:55.273Z,980.03
2022-11-21T04:04:55.277Z,979.99
2022-11-21T04:05:55.258Z,980.00
2022-11-21T04:06:55.253Z,980.06
2022-11-21T04:07:55.275Z,980.02
2022-11-21T04:08:55.273Z,980.03
2022-11-21T04:09:55.223Z,980.10
2022-11-21T04:10:55.241Z,980.14
2022-11-21T04:11:55.202Z,980.08
2022-11-21T04:12:55.227Z,980.07
2022-11-21T04:13:55.799Z,980.08
2022-11-21T04:14:55.180Z,980.11
2022-11-21T04:15:55.182Z,980.08
2022-11-21T04:16:55.170Z,980.09
2022-11-21T04:17:55.167Z,980.11
2022-11-21T04:18:55.157Z,980.12
2022-11-21T04:19:55.145Z,980.09
2022-11-21T04:20:55.130Z,980.11
2022-11-21T04:21:55.126Z,980.16
2022-11-21T04:22:55.169Z,980.13
2022-11-21T04:23:55.107Z,980.19
2022-11-21T04:24:55.118Z,980.22
2022-11-21T04:25:55.102Z,980.18
2022-11-21T04:26:55.103Z,980.18
2022-11-21T04:27:55.130Z,980.20
2022-11-21T04:28:55.092Z,980.15
2022-11-21T04:29:55.058Z,980.15
2022-11-21T04:30:55.707Z,980.10
2022-11-21T04:31:56.945Z,980.13
2022-11-21T04:32:55.035Z,980.16
2022-11-21T04:33:55.038Z,980.17
2022-11-21T04:35:28.832Z,980.19
2022-11-21T04:35:56.833Z,980.22
2022-11-21T04:36:55.029Z,980.23
2022-11-21T04:37:56.910Z,980.15
2022-11-21T04:39:27.881Z,980.15
2022-11-21T04:39:55.946Z,980.16
2022-11-21T04:40:55.871Z,980.18
2022-11-21T04:41:54.980Z,980.17
2022-11-21T04:42:54.980Z,980.21
2022-11-21T04:43:55.004Z,980.20
2022-11-21T04:44:56.864Z,980.17
2022-11-21T04:45:55.464Z,980.18
2022-11-21T04:46:54.942Z,980.17
2022-11-21T04:47:54.921Z,980.19
2022-11-21T04:48:54.917Z,980.22
2022-11-21T04:49:54.941Z,980.23
2022-11-21T04:50:54.906Z,980.23
2022-11-21T04:51:54.892Z,980.30
2022-11-21T04:52:54.902Z,980.32
2022-11-21T04:53:54.920Z,980.34
2022-11-21T04:54:54.869Z,980.35
2022-11-21T04:55:54.884Z,980.36
2022-11-21T04:56:54.862Z,980.38
2022-11-21T04:57:54.905Z,980.36
2022-11-21T04:58:54.875Z,980.37
2022-11-21T04:59:54.830Z,980.37
2022-11-21T05:00:54.887Z,980.36
2022-11-21T05:01:54.874Z,980.37
2022-11-21T05:02:54.801Z,980.40
2022-11-21T05:03:54.800Z,980.44
2022-11-21T05:04:54.796Z,980.43
2022-11-21T05:05:54.974Z,980.50
2022-11-21T05:06:55.796Z,980.45
2022-11-21T05:07:54.783Z,980.48
2022-11-21T05:08:54.761Z,980.45
2022-11-21T05:09:54.766Z,980.51
2022-11-21T05:10:54.769Z,980.52
2022-11-21T05:11:54.747Z,980.50
2022-11-21T05:12:54.740Z,980.53
2022-11-21T05:13:55.737Z,980.46
2022-11-21T05:14:54.742Z,980.50
2022-11-21T05:15:54.733Z,980.55
2022-11-21T05:16:54.694Z,980.54
2022-11-21T05:17:54.691Z,980.52
2022-11-21T05:18:57.455Z,980.54
2022-11-21T05:19:54.683Z,980.55
2022-11-21T05:20:54.698Z,980.57
2022-11-21T05:21:54.689Z,980.55
2022-11-21T05:23:29.405Z,980.52
2022-11-21T05:23:54.915Z,980.52
2022-11-21T05:24:54.635Z,980.60
2022-11-21T05:25:54.770Z,980.59
2022-11-21T05:26:55.438Z,980.58
2022-11-21T05:27:55.501Z,980.58
2022-11-21T05:29:28.308Z,980.65
2022-11-21T05:29:54.601Z,980.62
2022-11-21T05:30:54.585Z,980.64
2022-11-21T05:31:56.473Z,980.62
2022-11-21T05:32:54.571Z,980.64
2022-11-21T05:33:54.566Z,980.65
2022-11-21T05:34:54.556Z,980.65
2022-11-21T05:35:54.554Z,980.65
2022-11-21T05:36:55.434Z,980.63
2022-11-21T05:37:54.543Z,980.67
2022-11-21T05:38:55.433Z,980.66
2022-11-21T05:39:54.519Z,980.65
2022-11-21T05:40:54.514Z,980.63
2022-11-21T05:41:57.244Z,980.69
2022-11-21T05:42:56.494Z,980.61
2022-11-21T05:43:54.487Z,980.65
2022-11-21T05:44:54.472Z,980.70
2022-11-21T05:45:54.469Z,980.66
2022-11-21T05:46:54.473Z,980.65
2022-11-21T05:47:54.457Z,980.59
2022-11-21T05:48:54.444Z,980.62
2022-11-21T05:49:54.435Z,980.66
2022-11-21T05:50:54.437Z,980.65
2022-11-21T05:51:54.419Z,980.66
2022-11-21T05:52:54.415Z,980.71
2022-11-21T05:53:54.407Z,980.71
2022-11-21T05:54:57.004Z,980.65
2022-11-21T05:55:57.025Z,980.66
2022-11-21T05:56:54.396Z,980.75
2022-11-21T05:57:54.373Z,980.71
2022-11-21T05:59:01.969Z,980.73
2022-11-21T05:59:54.354Z,980.74
2022-11-21T06:00:59.990Z,980.80
2022-11-21T06:01:55.339Z,980.79
2022-11-21T06:02:54.430Z,980.80
2022-11-21T06:03:54.324Z,980.77
2022-11-21T06:04:58.239Z,980.74
2022-11-21T06:05:55.308Z,980.74
2022-11-21T06:06:57.024Z,980.71
2022-11-21T06:07:54.301Z,980.73
2022-11-21T06:08:54.281Z,980.76
2022-11-21T06:09:54.278Z,980.69
2022-11-21T06:10:54.265Z,980.79
2022-11-21T06:11:54.267Z,980.83
2022-11-21T06:12:54.259Z,980.81
2022-11-21T06:13:54.247Z,980.88
2022-11-21T06:14:54.237Z,980.88
2022-11-21T06:15:54.233Z,980.88
2022-11-21T06:16:54.239Z,980.89
2022-11-21T06:17:54.211Z,980.91
2022-11-21T06:18:58.334Z,980.92
2022-11-21T06:19:55.198Z,980.92
2022-11-21T06:20:54.188Z,980.92
2022-11-21T06:21:54.203Z,980.89
2022-11-21T06:22:54.174Z,980.90
2022-11-21T06:23:54.165Z,980.90
2022-11-21T06:24:54.165Z,980.90
2022-11-21T06:25:54.943Z,980.84
2022-11-21T06:26:54.139Z,980.85
2022-11-21T06:27:54.142Z,980.85
2022-11-21T06:28:54.135Z,980.89
2022-11-21T06:29:55.022Z,980.90
2022-11-21T06:30:54.118Z,980.98
2022-11-21T06:31:54.104Z,980.96
2022-11-21T06:32:54.184Z,980.95
2022-11-21T06:33:54.092Z,980.95
2022-11-21T06:34:55.953Z,980.98
2022-11-21T06:35:54.135Z,981.08
2022-11-21T06:36:56.054Z,981.13
2022-11-21T06:37:55.945Z,981.06
2022-11-21T06:38:54.058Z,981.12
2022-11-21T06:39:54.052Z,981.14
2022-11-21T06:40:54.948Z,981.15
2022-11-21T06:41:54.029Z,981.15
2022-11-21T06:42:54.027Z,981.17
2022-11-21T06:43:54.029Z,981.16
2022-11-21T06:44:53.997Z,981.25
2022-11-21T06:45:53.998Z,981.23
2022-11-21T06:46:53.989Z,981.18
2022-11-21T06:47:54.966Z,981.24
2022-11-21T06:48:53.979Z,981.20
2022-11-21T06:49:54.944Z,981.13
2022-11-21T06:50:54.532Z,981.11
2022-11-21T06:51:53.949Z,981.15
2022-11-21T06:52:54.524Z,981.11
2022-11-21T06:53:53.937Z,981.08
2022-11-21T06:54:54.941Z,981.20
2022-11-21T06:55:53.917Z,981.08
2022-11-21T06:56:53.914Z,981.09
2022-11-21T06:57:53.899Z,981.10
2022-11-21T06:58:53.894Z,981.22
2022-11-21T06:59:53.886Z,981.14
2022-11-21T07:00:57.600Z,981.19
2022-11-21T07:01:53.873Z,981.19
2022-11-21T07:02:56.547Z,981.16
2022-11-21T07:03:54.851Z,981.10
2022-11-21T07:04:53.845Z,981.16
2022-11-21T07:05:53.834Z,981.08
2022-11-21T07:06:53.835Z,981.17
2022-11-21T07:07:53.867Z,981.13
2022-11-21T07:09:17.533Z,981.17
2022-11-21T07:09:55.826Z,981.20
2022-11-21T07:11:22.959Z,981.14
2022-11-21T07:11:55.799Z,981.16
2022-11-21T07:12:53.801Z,981.14
2022-11-21T07:13:53.776Z,981.09
2022-11-21T07:14:53.763Z,981.12
2022-11-21T07:15:53.758Z,981.14
2022-11-21T07:16:53.761Z,981.10
2022-11-21T07:17:54.524Z,981.06
2022-11-21T07:18:53.743Z,981.09
2022-11-21T07:19:53.746Z,981.17
2022-11-21T07:20:53.717Z,981.23
2022-11-21T07:21:54.534Z,981.18
2022-11-21T07:22:53.704Z,981.12
2022-11-21T07:23:53.693Z,981.17
2022-11-21T07:24:53.690Z,981.19
2022-11-21T07:25:53.680Z,981.19
2022-11-21T07:26:54.455Z,981.22
2022-11-21T07:27:54.451Z,981.16
2022-11-21T07:28:55.523Z,981.18
2022-11-21T07:29:53.669Z,981.20
2022-11-21T07:30:53.643Z,981.26
2022-11-21T07:31:53.645Z,981.33
2022-11-21T07:32:53.625Z,981.28
2022-11-21T07:33:53.622Z,981.23
2022-11-21T07:34:54.462Z,981.24
2022-11-21T07:35:54.602Z,981.24
2022-11-21T07:36:56.002Z,981.24
2022-11-21T07:37:53.599Z,981.17
2022-11-21T07:38:53.597Z,981.21
2022-11-21T07:39:53.567Z,981.18
2022-11-21T07:40:53.585Z,981.18
2022-11-21T07:41:53.569Z,981.18
2022-11-21T07:42:53.552Z,981.24
2022-11-21T07:43:53.543Z,981.20
2022-11-21T07:44:53.535Z,981.19
2022-11-21T07:45:53.527Z,981.23
2022-11-21T07:46:53.531Z,981.26
2022-11-21T07:47:53.512Z,981.24
2022-11-21T07:48:53.494Z,981.20
2022-11-21T07:49:54.501Z,981.15
2022-11-21T07:50:54.454Z,981.21
2022-11-21T07:51:55.026Z,981.26
2022-11-21T07:52:53.477Z,981.26
2022-11-21T07:53:53.464Z,981.24
2022-11-21T07:54:55.451Z,981.20
2022-11-21T07:55:53.481Z,981.17
2022-11-21T07:56:53.447Z,981.17
2022-11-21T07:57:54.449Z,981.15
2022-11-21T07:58:53.461Z,981.19
2022-11-21T07:59:53.421Z,981.21
2022-11-21T08:00:53.419Z,981.18
2022-11-21T08:01:53.443Z,981.19
2022-11-21T08:02:53.405Z,981.18
2022-11-21T08:03:53.395Z,981.14
2022-11-21T08:04:54.383Z,981.20
2022-11-21T08:05:53.376Z,981.22
2022-11-21T08:06:53.377Z,981.24
2022-11-21T08:07:53.355Z,981.31
2022-11-21T08:08:53.362Z,981.24
2022-11-21T08:09:53.341Z,981.25
2022-11-21T08:10:53.338Z,981.23
2022-11-21T08:11:53.558Z,981.15
2022-11-21T08:12:54.320Z,981.14
2022-11-21T08:13:53.315Z,981.15
2022-11-21T08:14:53.309Z,981.19
2022-11-21T08:15:53.311Z,981.23
2022-11-21T08:16:53.302Z,981.20
2022-11-21T13:02:46.842Z,979.29
2022-11-21T13:03:46.440Z,979.27
2022-11-21T13:04:47.096Z,979.19
2022-11-21T13:05:47.081Z,979.16
2022-11-21T13:06:47.408Z,979.19
2022-11-21T13:07:46.511Z,979.20
2022-11-21T13:08:46.395Z,979.14
2022-11-21T13:09:46.390Z,979.15
2022-11-21T13:10:47.468Z,979.15
2022-11-21T13:11:47.459Z,979.18
2022-11-21T13:12:47.461Z,979.19
2022-11-21T13:13:47.447Z,979.19
2022-11-21T13:14:48.241Z,979.13
2022-11-21T13:15:47.458Z,979.09
2022-11-21T13:16:48.469Z,979.08
2022-11-21T13:17:47.420Z,979.08
2022-11-21T13:18:48.211Z,979.07
2022-11-21T13:19:49.321Z,979.01
2022-11-21T13:20:47.398Z,979.07
2022-11-21T13:21:47.387Z,979.11
2022-11-21T13:22:47.409Z,979.11
2022-11-21T13:23:47.397Z,979.12
2022-11-21T13:24:47.426Z,979.04
2022-11-21T13:25:47.911Z,979.12
2022-11-21T13:26:47.345Z,979.05
2022-11-21T13:27:47.338Z,979.11
2022-11-21T13:28:47.329Z,979.08
2022-11-21T13:29:48.012Z,979.01
2022-11-21T13:30:48.865Z,979.06
2022-11-21T13:31:48.070Z,979.07
2022-11-21T13:32:47.294Z,979.06
2022-11-21T13:33:48.260Z,979.02
2022-11-21T13:34:47.281Z,979.04
2022-11-21T13:35:47.289Z,979.04
2022-11-21T13:36:48.091Z,979.04
2022-11-21T13:37:47.250Z,979.00
2022-11-21T13:38:47.248Z,979.04
2022-11-21T13:39:48.035Z,979.01
2022-11-21T13:40:47.234Z,979.03
2022-11-21T13:41:47.225Z,979.05
2022-11-21T13:42:58.344Z,978.96
2022-11-21T13:43:49.208Z,978.95
2022-11-21T13:44:47.205Z,978.97
2022-11-21T13:45:47.254Z,978.97
2022-11-21T13:46:47.179Z,978.96
2022-11-21T13:47:53.980Z,978.98
2022-11-21T13:48:49.801Z,979.01
2022-11-21T13:49:47.199Z,978.97
2022-11-21T13:50:47.328Z,978.94
2022-11-21T13:51:47.140Z,978.91
2022-11-21T13:52:47.254Z,978.94
2022-11-21T13:53:51.304Z,978.91
2022-11-21T13:54:49.823Z,978.90
2022-11-21T13:55:48.105Z,978.93
2022-11-21T13:56:47.265Z,978.90
2022-11-21T13:57:48.109Z,978.90
2022-11-21T13:58:47.173Z,978.88
2022-11-21T13:59:48.084Z,978.88
2022-11-21T14:00:47.070Z,978.88
2022-11-21T14:01:48.482Z,978.84
2022-11-21T14:02:48.158Z,978.87
2022-11-21T14:03:47.140Z,978.84
2022-11-21T14:04:48.041Z,978.83
2022-11-21T14:05:47.763Z,978.82
2022-11-21T14:06:48.495Z,978.81
2022-11-21T14:07:47.898Z,978.82
2022-11-21T14:08:48.064Z,978.78
2022-11-21T14:09:48.147Z,978.81
2022-11-21T14:10:46.987Z,978.80
2022-11-21T14:11:47.103Z,978.83
2022-11-21T14:12:47.962Z,978.80
2022-11-21T14:13:47.807Z,978.76
2022-11-21T14:14:47.956Z,978.70
2022-11-21T14:15:47.206Z,978.76
2022-11-21T14:16:48.806Z,978.80
2022-11-21T14:17:47.377Z,978.73
2022-11-21T14:18:47.963Z,978.75
2022-11-21T14:19:46.929Z,978.74
2022-11-21T14:20:46.905Z,978.76
2022-11-21T14:21:49.201Z,978.73
2022-11-21T14:22:47.501Z,978.70
2022-11-21T14:23:47.166Z,978.68
2022-11-21T14:24:48.806Z,978.64
2022-11-21T14:25:47.288Z,978.64
2022-11-21T14:26:47.863Z,978.59
2022-11-21T14:27:47.264Z,978.64
2022-11-21T14:28:47.887Z,978.60
2022-11-21T14:29:47.024Z,978.57
2022-11-21T14:30:48.394Z,978.59
2022-11-21T14:31:47.273Z,978.58
2022-11-21T14:32:53.889Z,978.61
2022-11-21T14:33:48.797Z,978.63
2022-11-21T14:34:47.107Z,978.57
2022-11-21T14:35:47.797Z,978.63
2022-11-21T14:36:46.787Z,978.58
2022-11-21T14:37:48.167Z,978.56
2022-11-21T14:38:48.908Z,978.49
2022-11-21T14:39:55.467Z,978.51
2022-11-21T14:40:48.763Z,978.50
2022-11-21T14:41:47.165Z,978.50
2022-11-21T14:42:47.737Z,978.47
2022-11-21T14:43:47.121Z,978.47
2022-11-21T14:44:49.379Z,978.42
2022-11-21T14:45:48.038Z,978.41
2022-11-21T14:46:51.309Z,978.39
2022-11-21T14:47:48.324Z,978.37
2022-11-21T14:49:54.727Z,978.38
2022-11-21T14:50:54.721Z,978.36
2022-11-21T14:51:54.834Z,978.30
2022-11-21T14:52:56.616Z,978.32
2022-11-21T14:53:54.721Z,978.37
2022-11-21T14:55:28.748Z,978.28
2022-11-21T14:56:01.255Z,978.30
2022-11-21T14:57:01.665Z,978.31
2022-11-21T14:57:55.757Z,978.29
2022-11-21T14:58:55.789Z,978.30
2022-11-21T14:59:55.746Z,978.25
2022-11-21T15:01:00.192Z,978.23
2022-11-21T15:01:57.734Z,978.24
2022-11-21T15:02:55.796Z,978.21
2022-11-21T15:03:56.781Z,978.19
2022-11-21T15:04:56.572Z,978.15
2022-11-21T15:06:04.115Z,978.14
2022-11-21T15:06:57.688Z,978.10
2022-11-21T15:08:16.743Z,978.06
2022-11-21T15:10:57.659Z,978.06
2022-11-21T15:11:55.650Z,978.07
2022-11-21T15:12:55.635Z,978.03
2022-11-21T15:14:14.875Z,978.05
2022-11-21T15:14:58.160Z,978.04
2022-11-21T15:15:55.611Z,978.06
2022-11-21T15:16:55.608Z,978.03
2022-11-21T15:18:26.473Z,977.99
2022-11-21T15:18:57.598Z,977.96
2022-11-21T15:19:56.170Z,977.95
2022-11-21T15:20:59.213Z,977.97
2022-11-21T15:21:55.610Z,977.98
2022-11-21T15:22:55.557Z,977.99
2022-11-21T15:23:55.553Z,978.02
2022-11-21T15:24:55.539Z,977.94
2022-11-21T15:26:00.416Z,977.96
2022-11-21T15:26:58.080Z,977.96
2022-11-21T15:28:02.079Z,977.91
2022-11-21T15:28:55.509Z,977.89
2022-11-21T15:29:55.498Z,977.91
2022-11-21T15:30:55.500Z,977.86
2022-11-21T15:31:56.486Z,977.85
2022-11-21T15:32:55.471Z,977.86
2022-11-21T15:34:19.330Z,977.85
2022-11-21T15:34:57.465Z,977.85
2022-11-21T15:35:55.454Z,977.78
2022-11-21T15:36:55.452Z,977.77
2022-11-21T15:37:55.445Z,977.75
2022-11-21T15:38:56.434Z,977.69
2022-11-21T15:39:55.426Z,977.69
2022-11-21T15:40:57.085Z,977.71
2022-11-21T15:41:56.166Z,977.75
2022-11-21T15:42:56.170Z,977.76
2022-11-21T15:43:55.390Z,977.80
2022-11-21T15:44:55.386Z,977.78
2022-11-21T15:45:55.387Z,977.81
2022-11-21T15:46:59.156Z,977.78
2022-11-21T15:47:55.375Z,977.79
2022-11-21T15:48:55.361Z,977.73
2022-11-21T15:49:55.336Z,977.78
2022-11-21T15:50:58.814Z,977.79
2022-11-21T15:52:11.788Z,977.73
2022-11-21T15:52:59.110Z,977.77
2022-11-21T15:53:55.319Z,977.82
2022-11-21T15:54:55.295Z,977.85
2022-11-21T15:55:55.284Z,977.78
2022-11-21T15:56:55.278Z,977.80
2022-11-21T15:57:55.269Z,977.76
2022-11-21T15:58:57.164Z,977.79
2022-11-21T15:59:55.255Z,977.83
2022-11-21T16:00:55.305Z,977.83
2022-11-21T16:01:55.245Z,977.79
2022-11-21T16:02:55.248Z,977.82
2022-11-21T16:03:55.224Z,977.80
2022-11-21T16:04:55.218Z,977.70
2022-11-21T16:05:55.215Z,977.68
2022-11-21T16:06:56.088Z,977.70
2022-11-21T16:07:55.255Z,977.70
2022-11-21T16:08:55.186Z,977.66
2022-11-21T16:09:55.172Z,977.67
2022-11-21T16:10:55.185Z,977.66
2022-11-21T16:11:56.086Z,977.59
2022-11-21T16:12:56.161Z,977.58
2022-11-21T16:13:56.226Z,977.51
2022-11-21T16:14:55.129Z,977.51
2022-11-21T16:15:55.126Z,977.46
2022-11-21T16:16:55.125Z,977.49
2022-11-21T16:17:55.111Z,977.51
2022-11-21T16:18:55.105Z,977.48
2022-11-21T16:19:55.120Z,977.45
2022-11-21T16:20:56.088Z,977.35
2022-11-21T16:21:55.666Z,977.38
2022-11-21T16:22:55.067Z,977.33
2022-11-21T16:23:55.664Z,977.26
2022-11-21T16:24:55.060Z,977.15
2022-11-21T16:25:55.043Z,977.15
2022-11-21T16:26:55.047Z,977.10
2022-11-21T16:27:55.050Z,977.06
2022-11-21T16:28:55.024Z,977.07
2022-11-21T16:29:55.019Z,977.08
2022-11-21T16:30:56.587Z,977.08
2022-11-21T16:31:55.665Z,976.97
2022-11-21T16:32:54.995Z,976.94
2022-11-21T16:33:55.000Z,976.87
2022-11-21T16:34:54.973Z,976.86
2022-11-21T16:35:55.700Z,976.82
2022-11-21T16:36:54.963Z,976.83
2022-11-21T16:37:58.865Z,976.81
2022-11-21T16:38:54.944Z,976.78
2022-11-21T16:39:54.943Z,976.79
2022-11-21T16:40:54.923Z,976.76
2022-11-21T16:41:54.909Z,976.77
2022-11-21T16:42:54.906Z,976.73
2022-11-21T16:43:54.895Z,976.70
2022-11-21T16:44:54.917Z,976.73
2022-11-21T16:45:54.882Z,976.73
2022-11-21T16:47:03.717Z,976.70
2022-11-21T16:48:27.631Z,976.73
2022-11-21T16:48:54.863Z,976.65
2022-11-21T16:49:54.920Z,976.64
2022-11-21T16:50:54.854Z,976.61
2022-11-21T16:51:55.836Z,976.59
2022-11-21T16:52:54.822Z,976.59
2022-11-21T16:53:54.835Z,976.57
2022-11-21T16:54:54.860Z,976.49
2022-11-21T16:55:54.808Z,976.54
2022-11-21T16:56:54.819Z,976.48
2022-11-21T16:57:57.716Z,976.42
2022-11-21T17:00:02.084Z,976.55
2022-11-21T17:01:02.059Z,976.44
2022-11-21T17:02:01.991Z,976.47
2022-11-21T17:04:15.647Z,976.42
2022-11-21T17:05:12.327Z,976.37
2022-11-21T17:06:11.565Z,976.38
2022-11-21T17:07:12.496Z,976.35
2022-11-21T17:08:11.544Z,976.37
2022-11-21T17:09:11.537Z,976.32
2022-11-21T17:10:11.531Z,976.37
2022-11-21T17:11:11.526Z,976.35
2022-11-21T17:12:11.502Z,976.33
2022-11-21T17:13:11.518Z,976.28
2022-11-21T17:14:11.499Z,976.25
2022-11-21T17:15:11.511Z,976.30
2022-11-21T17:16:11.494Z,976.27
2022-11-21T17:17:11.938Z,976.32
2022-11-21T17:18:11.463Z,976.25
2022-11-21T17:19:11.466Z,976.26
2022-11-21T17:20:11.451Z,976.26
2022-11-21T17:21:11.439Z,976.24